Time;durP1;ratioP1;P1;durP2;ratioP2;P2;SDS_P1;SDS_P2;PMS_P1;PMS_P2;Temp;Humidity;BMP_temperature;BMP_pressure;BME280_temperature;BME280_humidity;BME280_pressure;Samples;Min_cycle;Max_cycle;Signal;HPM_P1;HPM_P2
2023/10/10 00:01:38;;;;;;;;;;;;;;;;;;5060661;27;99609;-71
2023/10/10 00:04:05;;;;;;;10.15;6.35;;;;;;;;;;5056777;27;125695;-71
2023/10/10 00:06:38;;;;;;;12.30;5.38;;;;;;;;;;5067621;27;98229;-72
2023/10/10 00:09:07;;;;;;;6.88;5.72;;;;;;;;;;5085005;27;99676;-71
2023/10/10 00:11:35;;;;;;;10.52;6.07;;;;;;;;;;5061431;27;98335;-71
2023/10/10 00:14:05;;;;;;;10.27;6.30;;;;;;;;;;5068347;27;98029;-71
2023/10/10 00:16:36;;;;;;;8.05;6.40;;;;;;;;;;5079438;27;98902;-72
2023/10/10 00:21:42;;;;;;;9.68;5.63;;;;;;;;;;5076938;27;100220;-71
2023/10/10 00:24:12;;;;;;;11.85;5.70;;;;;;;;;;5064736;27;100076;-71
2023/10/10 00:26:42;;;;;;;10.85;6.03;;;;;;;;;;5065582;27;98374;-72
2023/10/10 00:29:09;;;;;;;6.65;5.93;;;;;;;;;;5066109;27;99049;-71
2023/10/10 00:31:55;;;;;;;12.07;6.55;;;;;;;;;;5071277;27;98659;-71
2023/10/10 00:34:24;;;;;;;16.02;6.85;;;;;;;;;;5046694;27;99007;-71
2023/10/10 00:36:51;;;;;;;17.10;6.50;;;;;;;;;;5057424;27;99340;-71
2023/10/10 00:41:44;;;;;;;18.70;7.53;;;;;;;;;;5066647;27;98489;-72
2023/10/10 00:44:14;;;;;;;11.35;7.15;;;;;;;;;;5064496;27;104936;-71
2023/10/10 00:46:40;;;;;;;14.48;8.35;;;;;;;;;;5099954;27;98546;-71
2023/10/10 00:49:13;;;;;;;17.92;8.55;;;;;;;;;;5066098;27;100062;-70
2023/10/10 00:51:41;;;;;;;12.38;7.55;;;;;;;;;;5055433;27;99467;-71
2023/10/10 00:56:54;;;;;;;14.02;8.13;;;;;;;;;;5056293;27;99237;-71
2023/10/10 00:59:27;;;;;;;13.60;8.43;;;;;;;;;;5060811;27;98108;-71
2023/10/10 01:01:53;;;;;;;12.00;8.70;;;;;;;;;;5062829;27;98364;-71
2023/10/10 01:04:35;;;;;;;10.38;7.18;;;;;;;;;;5069699;27;99943;-71
2023/10/10 01:07:03;;;;;;;16.10;7.82;;;;;;;;;;5071150;27;98181;-71
2023/10/10 01:09:32;;;;;;;16.27;9.05;;;;;;;;;;5066216;27;98533;-71
2023/10/10 01:11:59;;;;;;;16.00;9.57;;;;;;;;;;5064701;27;98886;-71
2023/10/10 01:14:26;;;;;;;19.42;10.10;;;;;;;;;;5068506;27;98749;-71
2023/10/10 01:17:05;;;;;;;14.70;9.82;;;;;;;;;;5071576;27;99323;-72
2023/10/10 01:19:34;;;;;;;25.15;11.10;;;;;;;;;;5068791;27;99710;-71
2023/10/10 01:22:03;;;;;;;14.20;10.70;;;;;;;;;;5066864;27;100679;-71
2023/10/10 01:24:31;;;;;;;17.95;10.48;;;;;;;;;;5067765;27;99331;-71
2023/10/10 01:27:15;;;;;;;21.02;11.25;;;;;;;;;;5060022;27;98832;-71
2023/10/10 01:29:49;;;;;;;11.80;10.02;;;;;;;;;;5065476;27;99075;-70
2023/10/10 01:32:17;;;;;;;17.92;9.75;;;;;;;;;;5095419;27;102725;-71
2023/10/10 01:34:44;;;;;;;19.83;10.15;;;;;;;;;;5068403;27;98369;-71
2023/10/10 01:37:20;;;;;;;15.68;10.40;;;;;;;;;;5069028;27;99285;-70
2023/10/10 01:42:44;;;;;;;20.80;10.70;;;;;;;;;;5059009;27;98645;-71
2023/10/10 01:45:18;;;;;;;18.48;9.85;;;;;;;;;;5048260;27;98878;-71
2023/10/10 01:47:56;;;;;;;16.33;11.10;;;;;;;;;;5070374;27;98116;-71
2023/10/10 01:50:26;;;;;;;17.95;10.38;;;;;;;;;;5068922;27;98272;-70
2023/10/10 01:52:55;;;;;;;17.15;10.73;;;;;;;;;;5067012;27;100127;-72
2023/10/10 01:55:24;;;;;;;16.48;11.05;;;;;;;;;;5067529;27;98820;-70
2023/10/10 01:57:51;;;;;;;13.82;10.18;;;;;;;;;;5068164;27;99404;-71
2023/10/10 02:00:25;;;;;;;21.50;11.15;;;;;;;;;;5071280;27;101501;-71
2023/10/10 02:02:55;;;;;;;12.93;10.55;;;;;;;;;;5068679;27;98493;-70
2023/10/10 02:05:45;;;;;;;13.13;10.25;;;;;;;;;;5067305;27;100963;-72
2023/10/10 02:08:16;;;;;;;19.00;10.65;;;;;;;;;;5085130;27;99350;-70
2023/10/10 02:10:49;;;;;;;14.68;10.35;;;;;;;;;;5073922;27;102284;-71
2023/10/10 02:13:17;;;;;;;19.88;10.57;;;;;;;;;;5068237;27;98795;-71
2023/10/10 02:15:43;;;;;;;17.83;10.65;;;;;;;;;;5068350;27;98251;-70
2023/10/10 02:18:13;;;;;;;20.50;10.60;;;;;;;;;;5067665;27;100727;-70
2023/10/10 02:23:22;;;;;;;21.70;12.05;;;;;;;;;;5072876;27;98341;-71
2023/10/10 02:25:53;;;;;;;13.35;9.95;;;;;;;;;;5060991;27;101175;-70
2023/10/10 02:28:20;;;;;;;17.20;10.82;;;;;;;;;;5069676;27;98224;-70
2023/10/10 02:30:51;;;;;;;12.25;8.85;;;;;;;;;;5069526;27;98381;-72
2023/10/10 02:35:55;;;;;;;11.40;9.57;;;;;;;;;;5068554;27;98299;-72
2023/10/10 02:38:23;;;;;;;17.10;10.75;;;;;;;;;;5064581;27;98663;-72
2023/10/10 02:40:53;;;;;;;16.67;10.60;;;;;;;;;;5051178;27;101931;-70
2023/10/10 02:43:33;;;;;;;19.08;11.20;;;;;;;;;;5067680;27;98223;-71
2023/10/10 02:46:00;;;;;;;21.77;10.82;;;;;;;;;;5070043;27;98602;-71
2023/10/10 02:48:34;;;;;;;19.35;10.57;;;;;;;;;;5059042;27;98299;-70
2023/10/10 02:51:03;;;;;;;15.63;11.48;;;;;;;;;;5066330;27;98591;-72
2023/10/10 02:53:32;;;;;;;17.13;11.35;;;;;;;;;;5058989;27;99389;-71
2023/10/10 02:56:01;;;;;;;18.50;11.52;;;;;;;;;;5066867;27;98527;-70
2023/10/10 02:58:28;;;;;;;15.75;13.00;;;;;;;;;;5068809;27;98655;-72
2023/10/10 03:00:57;;;;;;;24.15;14.82;;;;;;;;;;5067014;27;98851;-70
2023/10/10 03:03:24;;;;;;;29.10;16.27;;;;;;;;;;5055059;27;98201;-70
2023/10/10 03:05:51;;;;;;;29.98;18.52;;;;;;;;;;5059931;27;99333;-71
2023/10/10 03:11:14;;;;;;;31.75;14.90;;;;;;;;;;5065030;27;99588;-71
2023/10/10 03:13:54;;;;;;;35.85;20.30;;;;;;;;;;5060701;27;99895;-72
2023/10/10 03:19:13;;;;;;;42.47;22.48;;;;;;;;;;5055000;27;101399;-71
2023/10/10 03:21:59;;;;;;;42.83;23.85;;;;;;;;;;5053933;27;98757;-71
2023/10/10 03:27:00;;;;;;;61.95;26.67;;;;;;;;;;5064401;27;100732;-70
2023/10/10 03:29:46;;;;;;;52.78;25.95;;;;;;;;;;5066049;27;100865;-71
2023/10/10 03:32:22;;;;;;;55.15;26.80;;;;;;;;;;5070098;27;98795;-72
2023/10/10 03:35:33;;;;;;;59.92;25.65;;;;;;;;;;5057248;27;99384;-71
2023/10/10 03:37:54;;;;;;;58.63;24.92;;;;;;;;;;5046090;27;98534;-71
2023/10/10 03:40:26;;;;;;;53.30;25.63;;;;;;;;;;5066759;27;98863;-71
2023/10/10 05:25:15;;;;;;;72.47;33.85;;;;;;;;;;5066811;27;99666;-70
2023/10/10 05:27:42;;;;;;;75.93;34.28;;;;;;;;;;5054004;27;98962;-71
2023/10/10 05:30:23;;;;;;;77.20;32.78;;;;;;;;;;5066537;27;98317;-71
2023/10/10 05:33:00;;;;;;;69.05;33.40;;;;;;;;;;5059077;27;98429;-71
2023/10/10 05:35:28;;;;;;;80.60;34.38;;;;;;;;;;5068538;27;98293;-71
2023/10/10 05:37:55;;;;;;;65.03;32.20;;;;;;;;;;5054700;27;99500;-71
2023/10/10 05:40:21;;;;;;;66.10;34.22;;;;;;;;;;5051641;27;100041;-71
2023/10/10 05:42:48;;;;;;;59.80;31.75;;;;;;;;;;5066237;27;99732;-71
2023/10/10 05:45:15;;;;;;;65.85;32.40;;;;;;;;;;5068724;27;98675;-72
2023/10/10 05:47:41;;;;;;;63.55;33.67;;;;;;;;;;5070315;27;98912;-71
2023/10/10 05:50:10;;;;;;;74.55;33.60;;;;;;;;;;5067396;27;98847;-70
2023/10/10 05:52:39;;;;;;;68.75;33.40;;;;;;;;;;5068670;27;98584;-71
2023/10/10 05:55:06;;;;;;;74.53;33.13;;;;;;;;;;5073889;27;100008;-71
2023/10/10 05:57:36;;;;;;;72.93;34.72;;;;;;;;;;5068613;27;100221;-70
2023/10/10 06:00:10;;;;;;;66.55;33.05;;;;;;;;;;5055070;27;100311;-71
2023/10/10 06:02:45;;;;;;;66.40;33.95;;;;;;;;;;5059555;27;98197;-70
2023/10/10 06:05:15;;;;;;;65.15;34.55;;;;;;;;;;5058841;27;98456;-71
2023/10/10 06:07:44;;;;;;;68.20;34.22;;;;;;;;;;5055786;27;98161;-69
2023/10/10 06:10:17;;;;;;;64.15;33.60;;;;;;;;;;5054025;27;98810;-70
2023/10/10 06:12:47;;;;;;;70.47;34.60;;;;;;;;;;5073023;27;99486;-71
2023/10/10 06:15:17;;;;;;;70.65;34.13;;;;;;;;;;5070817;27;99255;-72
2023/10/10 06:17:44;;;;;;;70.93;35.88;;;;;;;;;;5070526;27;99426;-71
2023/10/10 06:20:21;;;;;;;69.55;33.22;;;;;;;;;;5068420;27;98928;-71
2023/10/10 06:22:48;;;;;;;65.93;33.92;;;;;;;;;;5065068;27;100386;-71
2023/10/10 06:25:17;;;;;;;63.28;33.47;;;;;;;;;;5056977;27;98566;-70
2023/10/10 06:27:45;;;;;;;67.25;34.15;;;;;;;;;;5049119;27;100402;-70
2023/10/10 06:30:17;;;;;;;66.95;33.38;;;;;;;;;;5049402;27;98249;-72
2023/10/10 06:32:44;;;;;;;;;;;;;;;;;;5047683;27;99495;-70
2023/10/10 06:35:26;;;;;;;65.38;34.60;;;;;;;;;;5048085;27;124023;-71
2023/10/10 06:37:53;;;;;;;65.70;33.60;;;;;;;;;;5052539;27;98601;-71
2023/10/10 06:40:26;;;;;;;61.35;34.35;;;;;;;;;;5054509;27;99911;-71
2023/10/10 06:42:56;;;;;;;65.57;34.60;;;;;;;;;;5048892;27;98378;-71
2023/10/10 06:45:34;;;;;;;57.00;32.55;;;;;;;;;;5057266;27;99695;-72
2023/10/10 06:48:01;;;;;;;55.55;33.13;;;;;;;;;;5058427;27;98910;-71
2023/10/10 06:50:31;;;;;;;57.47;31.98;;;;;;;;;;5066220;27;98783;-71
2023/10/10 06:53:00;;;;;;;55.45;32.75;;;;;;;;;;5067234;27;98571;-71
2023/10/10 06:55:36;;;;;;;53.53;30.58;;;;;;;;;;5060382;27;99793;-71
2023/10/10 06:58:05;;;;;;;51.60;31.95;;;;;;;;;;5056681;27;99555;-70
2023/10/10 07:02:59;;;;;;;52.10;29.73;;;;;;;;;;5056878;27;98210;-70
2023/10/10 07:05:33;;;;;;;48.42;30.83;;;;;;;;;;5049389;27;99649;-72
2023/10/10 07:08:12;;;;;;;46.53;29.20;;;;;;;;;;5049669;27;98797;-72
2023/10/10 07:10:42;;;;;;;49.53;29.90;;;;;;;;;;5049294;27;98751;-71
2023/10/10 07:13:18;;;;;;;51.22;30.40;;;;;;;;;;5055184;27;98470;-70
2023/10/10 07:15:54;;;;;;;55.00;29.50;;;;;;;;;;5050525;27;99995;-69
2023/10/10 07:18:24;;;;;;;48.85;29.38;;;;;;;;;;5049727;27;98731;-70
2023/10/10 07:21:04;;;;;;;49.78;30.10;;;;;;;;;;5049415;27;99100;-71
2023/10/10 07:23:39;;;;;;;49.75;30.00;;;;;;;;;;5054301;27;100273;-71
2023/10/10 07:26:23;;;;;;;47.08;29.88;;;;;;;;;;5049918;27;99611;-69
2023/10/10 07:28:52;;;;;;;49.00;28.48;;;;;;;;;;5047330;27;99881;-69
2023/10/10 07:31:21;;;;;;;53.83;30.17;;;;;;;;;;5053834;27;100741;-71
2023/10/10 07:33:55;;;;;;;59.00;31.52;;;;;;;;;;5050028;27;98882;-70
2023/10/10 07:36:25;;;;;;;48.38;28.83;;;;;;;;;;5051075;27;100399;-71
2023/10/10 07:38:54;;;;;;;53.80;29.42;;;;;;;;;;5049354;27;98303;-70
2023/10/10 07:41:24;;;;;;;45.03;27.42;;;;;;;;;;5049263;27;98636;-71
2023/10/10 07:43:52;;;;;;;50.45;28.20;;;;;;;;;;5049184;27;99861;-69
2023/10/10 07:46:22;;;;;;;45.72;28.25;;;;;;;;;;5057886;27;99495;-70
2023/10/10 07:48:54;;;;;;;42.53;27.77;;;;;;;;;;5050345;27;99050;-71
2023/10/10 07:51:28;;;;;;;47.80;27.77;;;;;;;;;;5049031;27;98240;-69
2023/10/10 07:54:13;;;;;;;48.50;27.33;;;;;;;;;;5050239;27;98804;-71
2023/10/10 07:56:46;;;;;;;44.72;26.80;;;;;;;;;;5055710;27;100245;-71
2023/10/10 07:59:13;;;;;;;41.80;26.05;;;;;;;;;;5066230;27;100382;-70
2023/10/10 08:01:42;;;;;;;40.10;26.35;;;;;;;;;;5067527;27;98540;-72
2023/10/10 08:04:12;;;;;;;40.70;25.80;;;;;;;;;;5066627;27;99011;-70
2023/10/10 08:06:44;;;;;;;42.95;25.70;;;;;;;;;;5068328;27;98533;-72
2023/10/10 08:09:18;;;;;;;37.50;24.27;;;;;;;;;;5070779;27;98713;-72
2023/10/10 08:11:45;;;;;;;36.92;24.45;;;;;;;;;;5065338;27;98597;-71
2023/10/10 08:14:11;;;;;;;36.53;25.23;;;;;;;;;;5066646;27;99192;-71
2023/10/10 08:16:39;;;;;;;42.03;24.63;;;;;;;;;;5067255;27;99137;-69
2023/10/10 08:19:10;;;;;;;37.05;23.98;;;;;;;;;;5066447;27;98387;-71
2023/10/10 08:21:39;;;;;;;38.60;23.75;;;;;;;;;;5066966;27;98627;-70
2023/10/10 08:24:12;;;;;;;36.58;21.92;;;;;;;;;;5067478;27;98856;-71
2023/10/10 08:26:39;;;;;;;30.02;23.27;;;;;;;;;;5066929;27;98506;-71
2023/10/10 08:29:09;;;;;;;33.08;22.60;;;;;;;;;;5067690;27;98723;-71
2023/10/10 08:31:36;;;;;;;32.03;22.92;;;;;;;;;;5069422;27;98413;-69
2023/10/10 08:34:03;;;;;;;35.90;22.45;;;;;;;;;;5067956;27;99254;-71
2023/10/10 08:36:31;;;;;;;33.58;23.42;;;;;;;;;;5066815;27;99411;-70
2023/10/10 08:42:00;;;;;;;31.23;22.02;;;;;;;;;;5033369;27;99453;-70
2023/10/10 08:44:29;;;;;;;39.47;22.73;;;;;;;;;;5046190;27;98986;-70
2023/10/10 08:46:58;;;;;;;34.40;20.95;;;;;;;;;;5046520;27;98294;-72
2023/10/10 08:49:27;;;;;;;34.45;22.13;;;;;;;;;;5045978;27;99618;-69
2023/10/10 08:51:55;;;;;;;31.55;20.98;;;;;;;;;;5053708;27;99246;-70
2023/10/10 08:54:23;;;;;;;36.38;21.60;;;;;;;;;;5065879;27;98873;-70
2023/10/10 08:57:38;;;;;;;29.17;20.88;;;;;;;;;;5054641;27;98945;-70
2023/10/10 08:59:42;;;;;;;29.65;19.90;;;;;;;;;;5037788;27;98473;-70
2023/10/10 09:02:16;;;;;;;30.52;19.95;;;;;;;;;;5061241;27;98528;-70
2023/10/10 09:04:43;;;;;;;28.75;20.67;;;;;;;;;;5057935;27;98975;-70
2023/10/10 09:07:27;;;;;;;25.30;19.52;;;;;;;;;;5055078;27;98514;-70
2023/10/10 09:10:04;;;;;;;34.80;19.52;;;;;;;;;;5060000;27;98691;-70
2023/10/10 09:12:34;;;;;;;29.83;18.83;;;;;;;;;;5051708;27;99218;-70
2023/10/10 09:15:16;;;;;;;30.13;18.55;;;;;;;;;;5055028;27;98911;-70
2023/10/10 09:17:45;;;;;;;26.60;18.30;;;;;;;;;;5059903;27;99062;-70
2023/10/10 09:20:24;;;;;;;29.70;19.60;;;;;;;;;;5068856;27;98714;-72
2023/10/10 09:22:55;;;;;;;32.38;19.20;;;;;;;;;;5056177;27;98588;-71
2023/10/10 09:25:41;;;;;;;21.52;15.93;;;;;;;;;;5058676;27;99174;-71
2023/10/10 09:28:16;;;;;;;;;;;;;;;;;;5050044;27;98334;-71
2023/10/10 09:30:50;;;;;;;25.63;16.67;;;;;;;;;;5054331;27;129112;-70
2023/10/10 09:33:27;;;;;;;26.63;17.73;;;;;;;;;;5059065;27;98916;-72
2023/10/10 09:36:08;;;;;;;24.75;17.63;;;;;;;;;;5053804;27;98477;-69
2023/10/10 09:38:48;;;;;;;21.70;16.25;;;;;;;;;;5054597;27;99202;-70
2023/10/10 09:49:40;;;;;;;22.20;16.05;;;;;;;;;;5048769;27;99178;-71
2023/10/10 09:57:58;;;;;;;19.77;14.10;;;;;;;;;;4972917;28;98250;-70
2023/10/10 10:00:31;;;;;;;;;;;;;;;;;;5015419;27;98746;-69
2023/10/10 10:03:00;;;;;;;18.65;13.30;;;;;;;;;;5071664;27;129431;-69
2023/10/10 10:05:28;;;;;;;22.73;14.05;;;;;;;;;;5055104;27;98885;-71
2023/10/10 10:08:13;;;;;;;18.38;13.32;;;;;;;;;;5066324;27;99779;-71
2023/10/10 10:10:54;;;;;;;25.73;14.30;;;;;;;;;;5057807;27;98251;-70
2023/10/10 10:13:40;;;;;;;21.20;13.38;;;;;;;;;;5068980;27;98927;-71
2023/10/10 10:16:20;;;;;;;24.80;13.48;;;;;;;;;;5068740;27;99218;-71
2023/10/10 10:18:52;;;;;;;17.55;12.93;;;;;;;;;;5055749;27;98276;-71
2023/10/10 10:21:51;;;;;;;20.00;12.82;;;;;;;;;;5051529;27;99236;-70
2023/10/10 10:24:44;;;;;;;18.10;12.07;;;;;;;;;;5050136;27;99542;-72
2023/10/10 10:27:24;;;;;;;16.33;12.25;;;;;;;;;;5049161;27;98976;-74
2023/10/10 10:29:55;;;;;;;13.48;11.05;;;;;;;;;;5053549;27;100110;-71
2023/10/10 10:32:23;;;;;;;17.92;12.73;;;;;;;;;;5050418;27;98338;-71
2023/10/10 10:34:56;;;;;;;14.45;11.05;;;;;;;;;;5052600;27;98570;-72
2023/10/10 10:37:23;;;;;;;;;;;;;;;;;;5058354;27;100906;-72
2023/10/10 10:40:23;;;;;;;17.13;11.45;;;;;;;;;;5051813;27;123010;-71
2023/10/10 10:42:51;;;;;;;18.35;11.98;;;;;;;;;;5054729;27;98567;-71
2023/10/10 10:45:38;;;;;;;14.95;11.27;;;;;;;;;;5051421;27;99040;-71
2023/10/10 10:48:07;;;;;;;16.98;11.77;;;;;;;;;;5053825;27;99601;-72
2023/10/10 10:50:40;;;;;;;14.80;11.35;;;;;;;;;;5052000;27;99175;-71
2023/10/10 10:53:19;;;;;;;17.10;12.30;;;;;;;;;;5058073;27;98281;-72
2023/10/10 10:56:06;;;;;;;20.88;13.55;;;;;;;;;;5055922;27;99187;-70
2023/10/10 10:58:47;;;;;;;18.30;11.93;;;;;;;;;;5053531;27;98936;-71
2023/10/10 11:01:17;;;;;;;15.23;11.30;;;;;;;;;;5051270;27;98225;-71
2023/10/10 11:03:44;;;;;;;22.30;11.90;;;;;;;;;;5054868;27;99333;-71
2023/10/10 11:06:14;;;;;;;22.13;10.68;;;;;;;;;;5050770;27;99945;-72
2023/10/10 11:16:46;;;;;;;18.38;11.13;;;;;;;;;;5058158;27;99922;-71
2023/10/10 11:21:54;;;;;;;18.23;10.75;;;;;;;;;;5061058;27;98181;-72
2023/10/10 11:24:46;;;;;;;19.90;12.07;;;;;;;;;;5055691;27;98861;-72
2023/10/10 11:29:45;;;;;;;18.60;12.10;;;;;;;;;;5051860;27;98235;-71
2023/10/10 11:32:13;;;;;;;21.17;11.27;;;;;;;;;;5056556;27;99457;-71
2023/10/10 11:34:44;;;;;;;15.77;11.25;;;;;;;;;;5060488;27;99084;-70
2023/10/10 11:37:23;;;;;;;23.50;11.75;;;;;;;;;;5067944;27;98515;-71
2023/10/10 11:40:01;;;;;;;18.98;10.68;;;;;;;;;;5054272;27;99061;-72
2023/10/10 11:42:28;;;;;;;21.67;11.93;;;;;;;;;;5051044;27;99911;-70
2023/10/10 11:45:01;;;;;;;20.60;11.70;;;;;;;;;;5060939;27;99461;-69
2023/10/10 11:47:28;;;;;;;22.30;11.57;;;;;;;;;;5060670;27;99837;-72
2023/10/10 11:50:02;;;;;;;20.15;11.25;;;;;;;;;;5060721;27;98247;-70
2023/10/10 11:52:28;;;;;;;21.10;11.25;;;;;;;;;;5064780;27;98891;-70
2023/10/10 11:54:58;;;;;;;19.45;10.55;;;;;;;;;;5077566;27;99211;-71
2023/10/10 11:57:28;;;;;;;12.38;10.63;;;;;;;;;;5074395;27;98152;-71
2023/10/10 12:00:07;;;;;;;18.85;10.82;;;;;;;;;;5059445;27;98999;-70
2023/10/10 12:02:55;;;;;;;21.75;12.13;;;;;;;;;;5064116;27;98669;-70
2023/10/10 12:07:54;;;;;;;;;;;;;;;;;;5060479;27;99436;-70
2023/10/10 12:10:24;;;;;;;20.00;11.25;;;;;;;;;;5061214;27;126188;-71
2023/10/10 12:12:53;;;;;;;21.15;11.00;;;;;;;;;;5067704;27;98595;-71
2023/10/10 12:15:22;;;;;;;16.98;11.23;;;;;;;;;;5066745;27;100026;-71
2023/10/10 12:17:51;;;;;;;17.42;11.52;;;;;;;;;;5061825;27;98253;-70
2023/10/10 12:20:20;;;;;;;11.00;9.80;;;;;;;;;;5062652;27;98654;-72
2023/10/10 12:22:47;;;;;;;20.95;11.65;;;;;;;;;;5062702;27;98259;-72
2023/10/10 12:25:16;;;;;;;22.98;10.85;;;;;;;;;;5051949;27;99223;-69
2023/10/10 12:27:48;;;;;;;18.45;10.48;;;;;;;;;;5058993;27;99223;-71
2023/10/10 12:30:18;;;;;;;19.52;10.60;;;;;;;;;;5050889;27;98805;-71
2023/10/10 12:32:49;;;;;;;19.63;10.32;;;;;;;;;;5045457;27;98890;-71
2023/10/10 12:35:16;;;;;;;17.92;9.70;;;;;;;;;;5046967;27;99285;-71
2023/10/10 12:37:44;;;;;;;15.93;11.10;;;;;;;;;;5046663;27;98552;-69
2023/10/10 12:40:14;;;;;;;13.43;9.88;;;;;;;;;;5047517;27;98511;-71
2023/10/10 12:42:41;;;;;;;17.02;9.27;;;;;;;;;;5049730;27;99094;-71
2023/10/10 12:45:07;;;;;;;16.17;9.25;;;;;;;;;;5047502;27;98522;-71
2023/10/10 12:47:33;;;;;;;14.50;9.15;;;;;;;;;;5046785;27;100185;-71
2023/10/10 12:50:00;;;;;;;16.90;10.68;;;;;;;;;;5050363;27;98259;-70
2023/10/10 12:52:34;;;;;;;11.32;8.68;;;;;;;;;;5049595;27;99186;-71
2023/10/10 12:55:09;;;;;;;14.88;10.35;;;;;;;;;;5050296;27;99025;-72
2023/10/10 12:57:36;;;;;;;15.13;9.85;;;;;;;;;;5052227;27;99163;-71
2023/10/10 13:02:48;;;;;;;16.58;9.98;;;;;;;;;;5070012;27;98463;-72
2023/10/10 13:05:18;;;;;;;17.10;9.07;;;;;;;;;;5050099;27;98451;-71
2023/10/10 13:07:49;;;;;;;14.15;9.02;;;;;;;;;;5049646;27;100473;-71
2023/10/10 13:10:16;;;;;;;15.95;9.93;;;;;;;;;;5050050;27;99070;-72
2023/10/10 13:12:47;;;;;;;17.05;10.52;;;;;;;;;;5049282;27;98597;-72
2023/10/10 13:15:27;;;;;;;13.25;9.18;;;;;;;;;;5049477;27;99017;-71
2023/10/10 13:18:11;;;;;;;15.95;10.20;;;;;;;;;;5050180;27;98203;-71
2023/10/10 13:20:41;;;;;;;14.90;10.23;;;;;;;;;;5049139;27;99487;-72
2023/10/10 13:23:08;;;;;;;17.15;9.30;;;;;;;;;;5048550;27;98837;-71
2023/10/10 13:25:37;;;;;;;12.90;10.30;;;;;;;;;;5052883;27;98246;-71
2023/10/10 13:28:09;;;;;;;18.92;9.35;;;;;;;;;;5049017;27;99235;-71
2023/10/10 13:30:47;;;;;;;13.90;9.73;;;;;;;;;;5056622;27;98233;-71
2023/10/10 13:33:14;;;;;;;15.75;9.23;;;;;;;;;;5070167;27;100068;-72
2023/10/10 13:35:41;;;;;;;17.98;10.18;;;;;;;;;;5069480;27;100527;-72
2023/10/10 13:38:08;;;;;;;16.35;9.05;;;;;;;;;;5069853;27;98219;-71
2023/10/10 13:40:48;;;;;;;17.02;9.27;;;;;;;;;;5069927;27;98704;-71
2023/10/10 13:43:18;;;;;;;14.05;8.18;;;;;;;;;;5069507;27;98940;-71
2023/10/10 13:45:50;;;;;;;12.40;8.82;;;;;;;;;;5070215;27;98266;-71
2023/10/10 13:48:22;;;;;;;12.73;8.32;;;;;;;;;;5071450;27;98848;-71
2023/10/10 13:50:51;;;;;;;15.27;7.28;;;;;;;;;;5070020;27;98125;-71
2023/10/10 13:53:20;;;;;;;16.48;8.05;;;;;;;;;;5069455;27;99345;-71
2023/10/10 13:55:46;;;;;;;18.73;8.43;;;;;;;;;;5068680;27;98958;-72
2023/10/10 13:58:14;;;;;;;18.15;7.90;;;;;;;;;;5068953;27;98882;-70
2023/10/10 14:00:42;;;;;;;15.02;7.85;;;;;;;;;;5068752;27;98736;-70
2023/10/10 14:03:09;;;;;;;19.10;8.20;;;;;;;;;;5068979;27;98966;-70
2023/10/10 14:05:37;;;;;;;10.98;9.00;;;;;;;;;;5069773;27;98820;-70
2023/10/10 14:08:07;;;;;;;16.02;9.23;;;;;;;;;;5069805;27;98585;-71
2023/10/10 14:10:34;;;;;;;13.00;7.47;;;;;;;;;;5071751;27;99056;-72
2023/10/10 14:13:18;;;;;;;10.68;7.30;;;;;;;;;;5068905;27;98743;-71
2023/10/10 14:15:56;;;;;;;17.70;8.07;;;;;;;;;;5069273;27;98943;-71
2023/10/10 14:18:27;;;;;;;13.25;7.95;;;;;;;;;;5069517;27;98140;-72
2023/10/10 14:20:54;;;;;;;14.05;7.93;;;;;;;;;;5063917;27;98653;-71
2023/10/10 14:23:21;;;;;;;26.25;9.50;;;;;;;;;;5067474;27;99024;-72
2023/10/10 14:25:49;;;;;;;11.05;8.50;;;;;;;;;;5068957;27;98374;-72
2023/10/10 14:28:16;;;;;;;12.98;8.20;;;;;;;;;;5069161;27;98533;-71
2023/10/10 14:30:44;;;;;;;10.48;8.02;;;;;;;;;;5069000;27;99470;-71
2023/10/10 14:33:10;;;;;;;16.75;7.63;;;;;;;;;;5072728;27;98211;-71
2023/10/10 14:35:37;;;;;;;13.05;8.02;;;;;;;;;;5069109;27;98968;-71
2023/10/10 14:38:04;;;;;;;27.67;8.88;;;;;;;;;;5067870;27;98249;-71
2023/10/10 14:40:33;;;;;;;16.95;8.05;;;;;;;;;;5069074;27;98815;-71
2023/10/10 14:43:05;;;;;;;17.23;8.35;;;;;;;;;;5068582;27;99008;-71
2023/10/10 14:45:33;;;;;;;14.95;7.90;;;;;;;;;;5068015;27;98136;-72
2023/10/10 14:48:05;;;;;;;15.90;7.70;;;;;;;;;;5068913;27;99501;-72
2023/10/10 14:50:38;;;;;;;13.95;6.93;;;;;;;;;;5068283;27;99146;-71
2023/10/10 14:53:08;;;;;;;9.35;6.75;;;;;;;;;;5068121;27;98276;-71
2023/10/10 14:55:39;;;;;;;11.70;6.18;;;;;;;;;;5072081;27;99142;-72
2023/10/10 14:58:09;;;;;;;8.50;5.63;;;;;;;;;;5069380;27;98648;-71
2023/10/10 15:00:41;;;;;;;8.45;5.90;;;;;;;;;;5068422;27;99344;-72
2023/10/10 15:03:12;;;;;;;9.15;5.15;;;;;;;;;;5068217;27;100139;-71
2023/10/10 15:05:51;;;;;;;11.65;5.28;;;;;;;;;;5068108;27;98107;-71
2023/10/10 15:08:19;;;;;;;9.43;5.72;;;;;;;;;;5068379;27;98511;-71
2023/10/10 15:10:46;;;;;;;10.85;5.60;;;;;;;;;;5048230;27;100825;-71
2023/10/10 15:13:15;;;;;;;6.88;5.25;;;;;;;;;;5048492;27;98288;-71
2023/10/10 15:15:45;;;;;;;7.22;5.32;;;;;;;;;;5071545;27;98601;-71
2023/10/10 15:18:13;;;;;;;11.73;5.57;;;;;;;;;;5068456;27;98286;-71
2023/10/10 15:20:45;;;;;;;8.93;5.70;;;;;;;;;;5068186;27;98691;-71
2023/10/10 15:23:20;;;;;;;10.25;5.32;;;;;;;;;;5068918;27;98954;-71
2023/10/10 15:25:58;;;;;;;8.80;5.40;;;;;;;;;;5068450;27;98274;-71
2023/10/10 15:28:25;;;;;;;12.23;5.72;;;;;;;;;;5066179;27;98681;-72
2023/10/10 15:30:51;;;;;;;12.65;5.97;;;;;;;;;;5068636;27;98972;-72
2023/10/10 15:33:18;;;;;;;10.50;5.35;;;;;;;;;;5067975;27;98449;-71
2023/10/10 15:35:49;;;;;;;8.32;5.00;;;;;;;;;;5069027;27;98649;-72
2023/10/10 15:38:16;;;;;;;9.25;5.50;;;;;;;;;;5071670;27;99966;-71
2023/10/10 15:40:43;;;;;;;10.93;6.03;;;;;;;;;;5067946;27;99920;-73
2023/10/10 15:43:13;;;;;;;13.98;5.75;;;;;;;;;;5063010;27;98164;-70
2023/10/10 15:45:58;;;;;;;7.32;5.32;;;;;;;;;;5059674;27;98260;-71
2023/10/10 15:48:25;;;;;;;9.07;6.10;;;;;;;;;;5067588;27;98648;-71
2023/10/10 15:50:52;;;;;;;14.13;5.75;;;;;;;;;;5049384;27;98899;-71
2023/10/10 15:53:20;;;;;;;8.63;5.10;;;;;;;;;;5046893;27;98293;-70
2023/10/10 15:56:06;;;;;;;13.55;5.70;;;;;;;;;;5047293;27;99396;-71
2023/10/10 15:58:35;;;;;;;10.40;4.82;;;;;;;;;;5047320;27;99605;-70
2023/10/10 16:01:14;;;;;;;7.00;5.30;;;;;;;;;;5051705;27;98320;-69
2023/10/10 16:03:47;;;;;;;10.10;5.03;;;;;;;;;;5046515;27;99170;-70
2023/10/10 16:06:14;;;;;;;13.38;5.53;;;;;;;;;;5047252;27;98130;-72
2023/10/10 16:08:41;;;;;;;11.98;4.93;;;;;;;;;;5057912;27;99261;-71
2023/10/10 16:11:07;;;;;;;8.77;5.25;;;;;;;;;;5088464;27;98987;-71
2023/10/10 16:13:36;;;;;;;8.00;5.05;;;;;;;;;;5075080;27;98328;-72
2023/10/10 16:16:06;;;;;;;7.85;5.15;;;;;;;;;;5049708;27;99762;-71
2023/10/10 16:18:33;;;;;;;10.73;5.35;;;;;;;;;;5058358;27;98894;-70
2023/10/10 16:21:02;;;;;;;8.32;4.57;;;;;;;;;;5049639;27;99788;-71
2023/10/10 16:23:30;;;;;;;13.57;5.25;;;;;;;;;;5064352;27;99292;-70
2023/10/10 16:25:57;;;;;;;9.95;5.93;;;;;;;;;;5062535;27;98725;-71
2023/10/10 16:28:24;;;;;;;13.82;4.90;;;;;;;;;;5065889;27;98628;-71
2023/10/10 16:30:53;;;;;;;14.05;5.95;;;;;;;;;;5058784;27;99205;-71
2023/10/10 16:33:21;;;;;;;8.85;4.85;;;;;;;;;;5061326;27;98377;-72
2023/10/10 16:35:48;;;;;;;10.32;5.35;;;;;;;;;;5059431;27;98742;-71
2023/10/10 16:38:21;;;;;;;17.55;6.00;;;;;;;;;;5058571;27;99248;-71
2023/10/10 16:40:50;;;;;;;8.73;5.43;;;;;;;;;;5063328;27;98893;-71
2023/10/10 16:43:17;;;;;;;8.43;5.28;;;;;;;;;;5055851;27;98826;-72
2023/10/10 16:45:49;;;;;;;10.88;5.68;;;;;;;;;;5060075;27;100332;-70
2023/10/10 16:48:15;;;;;;;10.27;5.25;;;;;;;;;;5057813;27;99463;-72
2023/10/10 16:50:42;;;;;;;6.85;5.45;;;;;;;;;;5059746;27;99019;-71
2023/10/10 16:53:11;;;;;;;18.48;5.35;;;;;;;;;;5071543;27;98242;-71
2023/10/10 16:55:41;;;;;;;8.70;5.45;;;;;;;;;;5058121;27;98709;-70
2023/10/10 16:58:14;;;;;;;9.30;4.88;;;;;;;;;;5059596;27;99264;-70
2023/10/10 17:00:40;;;;;;;15.60;5.00;;;;;;;;;;5062951;27;98254;-72
2023/10/10 17:03:08;;;;;;;9.00;5.05;;;;;;;;;;5054031;27;98585;-72
2023/10/10 17:05:36;;;;;;;8.32;6.18;;;;;;;;;;5061554;27;99079;-72
2023/10/10 17:08:04;;;;;;;8.70;4.68;;;;;;;;;;5058587;27;98672;-72
2023/10/10 17:10:32;;;;;;;7.07;5.25;;;;;;;;;;5059405;27;98973;-72
2023/10/10 17:13:00;;;;;;;15.60;5.43;;;;;;;;;;5057735;27;98694;-71
2023/10/10 17:15:26;;;;;;;8.55;5.18;;;;;;;;;;5069785;27;98541;-72
2023/10/10 17:17:53;;;;;;;9.43;5.68;;;;;;;;;;5073687;27;99392;-71
2023/10/10 17:20:19;;;;;;;6.32;5.13;;;;;;;;;;5072902;27;98387;-72
2023/10/10 17:22:48;;;;;;;10.30;5.65;;;;;;;;;;5071764;27;98795;-72
2023/10/10 17:25:14;;;;;;;8.55;5.47;;;;;;;;;;5053292;27;99169;-72
2023/10/10 17:27:41;;;;;;;12.60;6.15;;;;;;;;;;5056254;27;98394;-71
2023/10/10 17:30:08;;;;;;;14.80;6.70;;;;;;;;;;5055486;27;99531;-71
2023/10/10 17:32:35;;;;;;;14.48;6.75;;;;;;;;;;5051613;27;98640;-72